createdAt,value
2023-05-06T00:02:20.019Z,78.92
2023-05-06T00:05:21.693Z,79.07
2023-05-06T00:08:23.663Z,79.16
2023-05-06T00:11:26.760Z,78.94
2023-05-06T00:14:28.387Z,78.25
2023-05-06T00:17:30.101Z,78.00
2023-05-06T00:20:32.016Z,78.43
2023-05-06T00:23:33.633Z,78.58
2023-05-06T00:26:36.602Z,78.44
2023-05-06T00:29:38.290Z,78.38
2023-05-06T00:32:39.948Z,78.16
2023-05-06T00:35:41.624Z,78.21
2023-05-06T00:38:43.623Z,78.20
2023-05-06T00:41:46.687Z,78.29
2023-05-06T00:44:48.656Z,78.06
2023-05-06T00:47:50.439Z,78.25
2023-05-06T00:50:52.464Z,78.47
2023-05-06T00:53:54.259Z,78.28
2023-05-06T00:56:57.320Z,78.09
2023-05-06T00:59:59.441Z,78.26
2023-05-06T01:03:01.848Z,77.95
2023-05-06T01:06:11.746Z,78.44
2023-05-06T01:09:20.803Z,78.11
2023-05-06T01:12:34.414Z,78.05
2023-05-06T01:15:43.023Z,77.71
2023-05-06T01:18:45.672Z,78.09
2023-05-06T01:21:51.753Z,77.78
2023-05-06T01:24:55.111Z,77.68
2023-05-06T01:27:56.792Z,77.55
2023-05-06T01:31:05.338Z,77.65
2023-05-06T01:34:14.175Z,77.69
2023-05-06T01:37:22.268Z,77.15
2023-05-06T01:40:27.489Z,77.66
2023-05-06T01:43:32.528Z,78.03
2023-05-06T01:46:35.492Z,77.99
2023-05-06T01:49:37.746Z,78.75
2023-05-06T01:52:39.462Z,78.73
2023-05-06T01:55:42.567Z,79.06
2023-05-06T01:58:44.357Z,78.99
2023-05-06T02:01:46.389Z,79.05
2023-05-06T02:04:48.046Z,78.75
2023-05-06T02:07:49.732Z,78.04
2023-05-06T02:10:53.263Z,78.38
2023-05-06T02:13:55.265Z,78.70
2023-05-06T02:16:56.913Z,78.41
2023-05-06T02:19:59.545Z,78.24
2023-05-06T02:23:01.140Z,78.40
2023-05-06T02:26:04.131Z,78.04
2023-05-06T02:29:06.047Z,78.46
2023-05-06T02:32:07.643Z,78.82
2023-05-06T02:35:10.077Z,78.76
2023-05-06T02:38:11.952Z,79.02
2023-05-06T02:41:14.946Z,79.02
2023-05-06T02:44:16.560Z,78.74
2023-05-06T02:47:18.867Z,78.55
2023-05-06T02:50:20.539Z,78.68
2023-05-06T02:53:22.258Z,78.67
2023-05-06T02:56:25.174Z,78.77
2023-05-06T02:59:26.991Z,78.51
2023-05-06T03:02:28.655Z,78.83
2023-05-06T03:05:30.332Z,78.35
2023-05-06T03:08:32.356Z,77.96
2023-05-06T03:11:35.349Z,78.01
2023-05-06T03:14:36.959Z,78.69
2023-05-06T03:17:38.712Z,78.12
2023-05-06T03:20:40.426Z,78.26
2023-05-06T03:23:42.146Z,78.89
2023-05-06T03:26:45.109Z,79.02
2023-05-06T03:29:46.963Z,78.61
2023-05-06T03:32:48.985Z,78.17
2023-05-06T03:35:50.929Z,78.18
2023-05-06T03:38:52.672Z,77.92
2023-05-06T03:41:55.689Z,78.78
2023-05-06T03:44:57.587Z,78.23
2023-05-06T03:47:59.545Z,78.29
2023-05-06T03:51:01.387Z,78.56
2023-05-06T03:54:03.405Z,78.48
2023-05-06T03:57:07.697Z,78.21
2023-05-06T04:00:10.577Z,78.10
2023-05-06T04:03:19.409Z,77.56
2023-05-06T04:06:21.142Z,78.11
2023-05-06T04:09:22.817Z,78.27
2023-05-06T04:12:25.937Z,77.32
2023-05-06T04:15:27.631Z,78.36
2023-05-06T04:18:29.798Z,77.84
2023-05-06T04:21:31.444Z,77.19
2023-05-06T04:24:33.152Z,77.84
2023-05-06T04:27:36.138Z,77.53
2023-05-06T04:30:37.831Z,77.13
2023-05-06T04:33:39.815Z,77.21
2023-05-06T04:36:42.256Z,76.59
2023-05-06T04:39:43.913Z,76.30
2023-05-06T04:42:47.172Z,75.74
2023-05-06T04:45:48.882Z,76.07
2023-05-06T04:48:50.714Z,75.74
2023-05-06T04:51:52.838Z,75.15
2023-05-06T04:54:54.468Z,75.14
2023-05-06T04:57:59.552Z,74.84
2023-05-06T05:01:04.323Z,75.03
2023-05-06T05:04:06.062Z,74.19
2023-05-06T05:07:08.042Z,74.52
2023-05-06T05:10:10.297Z,73.88
2023-05-06T05:13:13.731Z,73.51
2023-05-06T05:16:15.652Z,72.86
2023-05-06T05:19:17.830Z,73.39
2023-05-06T05:22:19.498Z,72.39
2023-05-06T05:25:21.191Z,72.28
2023-05-06T05:28:24.189Z,72.36
2023-05-06T05:31:25.944Z,71.84
2023-05-06T05:34:27.739Z,71.79
2023-05-06T05:37:29.366Z,71.06
2023-05-06T05:40:30.966Z,71.26
2023-05-06T05:43:34.221Z,70.99
2023-05-06T05:46:36.642Z,71.44
2023-05-06T05:49:38.534Z,71.51
2023-05-06T05:52:40.221Z,71.14
2023-05-06T05:55:42.181Z,70.45
2023-05-06T05:58:45.145Z,69.70
2023-05-06T06:01:47.072Z,70.40
2023-05-06T06:04:48.692Z,70.19
2023-05-06T06:07:50.972Z,71.00
2023-05-06T06:10:52.637Z,70.17
2023-05-06T06:13:56.004Z,69.98
2023-05-06T06:16:58.324Z,69.62
2023-05-06T06:19:59.992Z,69.58
2023-05-06T06:23:01.784Z,70.24
2023-05-06T06:26:03.650Z,70.30
2023-05-06T06:29:06.680Z,69.34
2023-05-06T06:32:08.376Z,68.17
2023-05-06T06:35:10.204Z,68.90
2023-05-06T06:38:12.197Z,68.34
2023-05-06T06:41:14.173Z,67.16
2023-05-06T06:44:17.195Z,66.71
2023-05-06T06:47:18.852Z,67.07
2023-05-06T06:50:20.718Z,66.79
2023-05-06T06:53:22.373Z,66.23
2023-05-06T06:56:24.025Z,66.33
2023-05-06T06:59:27.272Z,65.81
2023-05-06T07:02:28.958Z,66.35
2023-05-06T07:05:30.583Z,65.29
2023-05-06T07:08:32.319Z,64.75
2023-05-06T07:11:34.070Z,65.80
2023-05-06T07:14:37.124Z,64.62
2023-05-06T07:17:38.872Z,65.27
2023-05-06T07:20:40.979Z,63.32
2023-05-06T07:23:42.623Z,63.95
2023-05-06T07:26:44.279Z,64.40
2023-05-06T07:29:47.522Z,62.37
2023-05-06T07:32:49.035Z,64.52
2023-05-06T07:35:52.566Z,61.88
2023-05-06T07:38:54.278Z,61.79
2023-05-06T07:41:56.457Z,61.38
2023-05-06T07:44:59.755Z,60.93
2023-05-06T07:48:01.423Z,59.40
2023-05-06T07:51:03.909Z,58.82
2023-05-06T07:54:05.606Z,59.54
2023-05-06T07:57:07.266Z,59.34
2023-05-06T08:00:11.384Z,57.68
2023-05-06T08:03:13.225Z,55.67
2023-05-06T08:06:15.419Z,55.85
2023-05-06T08:09:22.263Z,56.11
2023-05-06T08:12:24.695Z,55.53
2023-05-06T08:15:27.899Z,54.69
2023-05-06T08:18:30.005Z,53.12
2023-05-06T08:21:31.839Z,53.59
2023-05-06T08:24:33.663Z,54.88
2023-05-06T08:27:35.291Z,55.01
2023-05-06T08:30:38.267Z,53.55
2023-05-06T08:33:39.922Z,54.32
2023-05-06T08:36:41.850Z,54.25
2023-05-06T08:39:43.854Z,54.03
2023-05-06T08:42:46.456Z,53.91
2023-05-06T08:45:49.851Z,51.55
2023-05-06T08:48:52.827Z,51.07
2023-05-06T08:51:55.091Z,52.34
2023-05-06T08:54:58.023Z,50.13
2023-05-06T08:58:00.281Z,49.56
2023-05-06T09:01:04.181Z,50.19
2023-05-06T09:04:07.047Z,49.46
2023-05-06T09:07:08.847Z,49.00
2023-05-06T09:10:13.512Z,47.51
2023-05-06T09:13:18.573Z,46.47
2023-05-06T09:16:29.218Z,48.96
2023-05-06T09:19:31.377Z,48.16
2023-05-06T09:22:33.244Z,49.65
2023-05-06T09:25:35.891Z,49.54
2023-05-06T09:28:37.797Z,47.64
2023-05-06T09:31:43.125Z,43.40
2023-05-06T09:34:44.802Z,43.94
2023-05-06T09:37:46.415Z,45.40
2023-05-06T09:40:48.017Z,45.90
2023-05-06T09:43:49.988Z,47.20
2023-05-06T09:46:53.123Z,46.33
2023-05-06T09:49:57.253Z,47.25
2023-05-06T09:53:00.372Z,44.17
2023-05-06T09:56:02.746Z,44.64
2023-05-06T09:59:05.831Z,45.35
2023-05-06T10:02:11.040Z,44.81
2023-05-06T10:05:14.026Z,43.28
2023-05-06T10:08:18.825Z,44.23
2023-05-06T10:11:25.038Z,40.75
2023-05-06T10:14:26.713Z,43.14
2023-05-06T10:17:31.856Z,42.15
2023-05-06T10:20:35.668Z,40.55
2023-05-06T10:23:44.303Z,41.05
2023-05-06T10:26:46.310Z,40.87
2023-05-06T10:29:49.079Z,40.53
2023-05-06T10:32:56.538Z,42.21
2023-05-06T10:36:10.558Z,42.85
2023-05-06T10:39:13.141Z,43.62
2023-05-06T10:42:16.983Z,42.57
2023-05-06T10:45:18.768Z,42.76
2023-05-06T10:48:21.806Z,42.14
2023-05-06T10:51:24.350Z,42.35
2023-05-06T10:54:26.255Z,42.67
2023-05-06T10:57:40.825Z,41.07
2023-05-06T11:00:52.543Z,39.82
2023-05-06T11:03:55.778Z,39.11
2023-05-06T11:07:08.255Z,41.13
2023-05-06T11:10:10.965Z,43.85
2023-05-06T11:13:23.964Z,40.63
2023-05-06T11:16:47.149Z,39.24
2023-05-06T11:19:50.167Z,39.39
2023-05-06T11:22:52.138Z,38.40
2023-05-06T11:25:54.696Z,38.42
2023-05-06T11:28:59.527Z,37.56
2023-05-06T11:32:01.361Z,40.47
2023-05-06T11:35:05.412Z,39.30
2023-05-06T11:38:11.103Z,41.44
2023-05-06T11:41:13.327Z,39.60
2023-05-06T11:44:25.229Z,38.50
2023-05-06T11:47:26.953Z,36.86
2023-05-06T11:50:30.041Z,37.18
2023-05-06T11:53:31.778Z,36.90
2023-05-06T11:56:47.293Z,37.71
2023-05-06T11:59:54.243Z,37.88
2023-05-06T12:02:56.401Z,36.94
2023-05-06T12:06:00.180Z,36.40
2023-05-06T12:09:03.055Z,37.62
2023-05-06T12:12:06.679Z,37.58
2023-05-06T12:15:10.268Z,35.62
2023-05-06T12:18:12.766Z,33.92
2023-05-06T12:21:22.077Z,36.75
2023-05-06T12:24:27.708Z,35.78
2023-05-06T12:27:33.189Z,34.64
2023-05-06T12:30:34.868Z,34.36
2023-05-06T12:33:44.572Z,32.71
2023-05-06T12:36:47.937Z,33.87
2023-05-06T12:39:49.749Z,32.42
2023-05-06T12:42:54.732Z,31.60
2023-05-06T12:46:06.637Z,32.55
2023-05-06T12:49:08.602Z,32.45
2023-05-06T12:52:11.884Z,33.54
2023-05-06T12:55:13.816Z,33.79
2023-05-06T12:58:15.953Z,32.86
2023-05-06T13:01:20.140Z,31.89
2023-05-06T13:04:22.075Z,32.00
2023-05-06T13:07:25.067Z,32.97
2023-05-06T13:10:26.513Z,30.74
2023-05-06T13:13:28.173Z,29.99
2023-05-06T13:19:33.562Z,29.71
2023-05-06T13:22:50.653Z,31.65
2023-05-06T13:26:04.147Z,31.00
2023-05-06T13:29:06.233Z,29.97
2023-05-06T13:32:08.936Z,31.81
2023-05-06T13:35:10.956Z,31.49
2023-05-06T13:38:14.268Z,33.22
2023-05-06T13:41:15.817Z,31.33
2023-05-06T13:44:19.399Z,31.82
2023-05-06T13:47:21.321Z,32.16
2023-05-06T13:50:23.019Z,32.50
2023-05-06T13:53:26.111Z,33.52
2023-05-06T13:56:27.813Z,31.84
2023-05-06T13:59:29.450Z,33.91
2023-05-06T14:02:31.614Z,35.27
2023-05-06T14:05:33.420Z,35.31
2023-05-06T14:08:36.497Z,34.42
2023-05-06T14:11:40.688Z,36.21
2023-05-06T14:14:42.584Z,35.93
2023-05-06T14:17:44.534Z,37.07
2023-05-06T14:20:46.162Z,38.35
2023-05-06T14:23:49.097Z,38.62
2023-05-06T14:26:52.434Z,38.17
2023-05-06T14:29:54.562Z,39.00
2023-05-06T14:32:56.579Z,40.01
2023-05-06T14:35:58.188Z,41.11
2023-05-06T14:39:01.522Z,40.89
2023-05-06T14:42:03.288Z,40.29
2023-05-06T14:45:07.760Z,40.06
2023-05-06T14:48:09.434Z,39.63
2023-05-06T14:51:18.805Z,40.48
2023-05-06T14:54:23.156Z,43.98
2023-05-06T14:57:24.995Z,44.75
2023-05-06T15:00:26.734Z,46.11
2023-05-06T15:03:28.657Z,46.96
2023-05-06T15:06:30.755Z,48.18
2023-05-06T15:09:34.083Z,48.81
2023-05-06T15:12:36.580Z,49.20
2023-05-06T15:15:38.771Z,49.36
2023-05-06T15:18:40.332Z,50.06
2023-05-06T15:21:41.949Z,50.17
2023-05-06T15:24:45.049Z,49.97
2023-05-06T15:27:46.673Z,50.35
2023-05-06T15:30:48.383Z,50.65
2023-05-06T15:33:52.372Z,51.56
2023-05-06T15:36:54.255Z,52.16
2023-05-06T15:40:01.165Z,52.02
2023-05-06T15:43:04.508Z,52.64
2023-05-06T15:46:06.045Z,52.75
2023-05-06T15:52:21.285Z,52.86
2023-05-06T15:55:27.200Z,52.78
2023-05-06T15:58:28.869Z,53.71
2023-05-06T16:04:37.711Z,53.23
2023-05-06T16:07:39.636Z,53.63
2023-05-06T16:10:42.934Z,54.01
2023-05-06T16:13:46.352Z,54.23
2023-05-06T16:16:58.446Z,54.95
2023-05-06T16:20:00.314Z,54.89
2023-05-06T16:23:01.973Z,55.17
2023-05-06T16:26:05.084Z,55.44
2023-05-06T16:29:06.801Z,55.97
2023-05-06T16:32:08.685Z,56.11
2023-05-06T16:35:10.767Z,56.51
2023-05-06T16:38:13.309Z,56.75
2023-05-06T16:41:16.433Z,57.16
2023-05-06T16:44:18.324Z,56.81
2023-05-06T16:47:24.095Z,57.69
2023-05-06T16:50:26.142Z,57.57
2023-05-06T16:53:28.961Z,58.02
2023-05-06T16:56:44.167Z,58.31
2023-05-06T16:59:53.187Z,58.18
2023-05-06T17:02:55.102Z,58.83
2023-05-06T17:05:57.049Z,59.55
2023-05-06T17:09:01.691Z,59.50
2023-05-06T17:12:05.271Z,61.00
2023-05-06T17:15:08.302Z,62.76
2023-05-06T17:18:10.058Z,63.75
2023-05-06T17:21:12.010Z,63.47
2023-05-06T17:24:13.606Z,63.74
2023-05-06T17:27:16.903Z,63.96
2023-05-06T17:30:18.374Z,63.64
2023-05-06T17:33:20.499Z,64.73
2023-05-06T17:36:22.202Z,65.16
2023-05-06T17:39:24.326Z,66.16
2023-05-06T17:42:27.566Z,65.14
2023-05-06T17:45:29.005Z,65.81
2023-05-06T17:48:30.649Z,64.49
2023-05-06T17:51:32.324Z,64.63
2023-05-06T17:54:33.981Z,64.71
2023-05-06T17:57:37.089Z,65.85
2023-05-06T18:00:38.746Z,66.25
2023-05-06T18:03:42.890Z,66.68
2023-05-06T18:06:46.156Z,67.20
2023-05-06T18:09:48.145Z,67.34
2023-05-06T18:12:51.555Z,68.17
2023-05-06T18:15:53.456Z,69.33
2023-05-06T18:18:55.145Z,69.96
2023-05-06T18:21:56.870Z,70.16
2023-05-06T18:24:58.618Z,70.31
2023-05-06T18:28:01.766Z,70.60
2023-05-06T18:31:03.427Z,70.59
2023-05-06T18:34:05.094Z,70.78
2023-05-06T18:37:06.982Z,71.15
2023-05-06T18:40:09.332Z,70.96
2023-05-06T18:43:12.769Z,72.09
2023-05-06T18:46:14.832Z,72.38
2023-05-06T18:49:16.531Z,72.79
2023-05-06T18:52:18.291Z,72.49
2023-05-06T18:55:20.052Z,73.38
2023-05-06T18:58:23.125Z,73.34
2023-05-06T19:01:24.876Z,73.20
2023-05-06T19:04:27.025Z,73.38
2023-05-06T19:07:28.868Z,73.84
2023-05-06T19:10:30.502Z,74.45
2023-05-06T19:13:33.463Z,75.06
2023-05-06T19:16:35.565Z,75.54
2023-05-06T19:19:37.243Z,75.38
2023-05-06T19:22:38.942Z,76.07
2023-05-06T19:25:40.759Z,76.00
2023-05-06T19:28:44.001Z,76.38
2023-05-06T19:31:45.740Z,76.96
2023-05-06T19:34:47.769Z,76.96
2023-05-06T19:37:49.540Z,76.98
2023-05-06T19:40:51.252Z,77.41
2023-05-06T19:43:54.447Z,77.50
2023-05-06T19:46:56.086Z,77.20
2023-05-06T19:49:57.771Z,77.82
2023-05-06T19:52:59.512Z,77.07
2023-05-06T19:56:08.801Z,77.18
2023-05-06T19:59:11.823Z,76.13
2023-05-06T20:02:14.001Z,76.32
2023-05-06T20:05:15.771Z,76.84
2023-05-06T20:08:17.527Z,76.60
2023-05-06T20:11:19.656Z,76.81
2023-05-06T20:14:22.706Z,77.04
2023-05-06T20:17:24.324Z,76.44
2023-05-06T20:20:25.940Z,76.35
2023-05-06T20:23:27.646Z,76.62
2023-05-06T20:26:29.327Z,76.13
2023-05-06T20:29:32.394Z,76.20
2023-05-06T20:32:34.330Z,76.44
2023-05-06T20:35:36.007Z,77.09
2023-05-06T20:38:37.634Z,76.30
2023-05-06T20:41:39.330Z,75.99
2023-05-06T20:44:42.853Z,76.05
2023-05-06T20:47:44.966Z,75.68
2023-05-06T20:50:46.694Z,75.69
2023-05-06T20:53:48.646Z,75.87
2023-05-06T20:56:50.328Z,75.91
2023-05-06T20:59:53.368Z,75.30
2023-05-06T21:02:55.041Z,75.94
2023-05-06T21:05:56.743Z,76.22
2023-05-06T21:08:58.634Z,76.28
2023-05-06T21:12:00.291Z,76.36
2023-05-06T21:15:03.849Z,76.92
2023-05-06T21:18:05.794Z,77.26
2023-05-06T21:21:07.536Z,77.40
2023-05-06T21:24:09.160Z,78.09
2023-05-06T21:27:10.868Z,79.29
2023-05-06T21:30:14.484Z,79.35
2023-05-06T21:33:16.056Z,79.88
2023-05-06T21:36:17.678Z,80.31
2023-05-06T21:39:19.618Z,80.53
2023-05-06T21:42:21.220Z,80.78
2023-05-06T21:45:24.224Z,81.29
2023-05-06T21:48:25.882Z,81.67
2023-05-06T21:51:28.338Z,80.79
2023-05-06T21:54:30.105Z,81.18
2023-05-06T21:57:31.829Z,81.36
2023-05-06T22:00:34.869Z,81.67
2023-05-06T22:03:36.648Z,81.77
2023-05-06T22:06:38.586Z,81.57
2023-05-06T22:09:40.252Z,81.33
2023-05-06T22:12:42.226Z,81.09
2023-05-06T22:15:45.199Z,81.71
2023-05-06T22:18:46.797Z,82.06
2023-05-06T22:21:48.396Z,82.24
2023-05-06T22:24:50.046Z,82.03
2023-05-06T22:27:52.115Z,81.85
2023-05-06T22:30:55.132Z,82.01
2023-05-06T22:33:56.804Z,82.18
2023-05-06T22:37:00.446Z,82.17
2023-05-06T22:40:02.786Z,82.27
2023-05-06T22:43:04.631Z,81.48
2023-05-06T22:46:07.710Z,82.20
2023-05-06T22:49:09.333Z,82.40
2023-05-06T22:52:11.218Z,82.45
2023-05-06T22:55:13.213Z,81.35
2023-05-06T22:58:15.029Z,80.85
2023-05-06T23:01:18.179Z,80.96
2023-05-06T23:04:19.970Z,81.16
2023-05-06T23:07:21.647Z,81.40
2023-05-06T23:10:23.785Z,81.16
2023-05-06T23:13:25.509Z,81.69
2023-05-06T23:16:28.601Z,82.48
2023-05-06T23:19:30.477Z,83.36
2023-05-06T23:22:32.108Z,83.20
2023-05-06T23:25:33.757Z,83.59
2023-05-06T23:28:35.454Z,84.13
2023-05-06T23:31:38.777Z,83.75
2023-05-06T23:34:40.418Z,83.59
2023-05-06T23:37:42.082Z,83.47
2023-05-06T23:40:44.155Z,84.21
2023-05-06T23:43:46.055Z,84.57
2023-05-06T23:46:49.271Z,85.66
2023-05-06T23:49:51.224Z,85.73
2023-05-06T23:52:52.885Z,85.88
2023-05-06T23:55:55.153Z,85.79
2023-05-06T23:58:56.778Z,85.30
